Time;durP1;ratioP1;P1;durP2;ratioP2;P2;SDS_P1;SDS_P2;PMS_P1;PMS_P2;Temp;Humidity;BMP_temperature;BMP_pressure;BME280_temperature;BME280_humidity;BME280_pressure;Samples;Min_cycle;Max_cycle;Signal;HPM_P1;HPM_P2
2023/10/29 00:02:14;;;;;;;1.60;0.60;;;;;;;;;;5013824;28;20273;-64
2023/10/29 00:04:39;;;;;;;2.20;0.63;;;;;;;;;;5013256;28;20354;-64
2023/10/29 00:07:05;;;;;;;1.35;0.52;;;;;;;;;;5013804;28;20048;-64
2023/10/29 00:09:30;;;;;;;1.70;0.57;;;;;;;;;;5013789;28;20049;-64
2023/10/29 00:11:56;;;;;;;1.13;0.40;;;;;;;;;;5013840;28;20192;-64
2023/10/29 00:14:21;;;;;;;2.80;0.32;;;;;;;;;;5013539;28;20080;-64
2023/10/29 00:16:47;;;;;;;0.82;0.30;;;;;;;;;;5012993;28;20030;-65
2023/10/29 00:19:12;;;;;;;0.87;0.40;;;;;;;;;;5013546;28;20099;-64
2023/10/29 00:21:37;;;;;;;2.70;0.53;;;;;;;;;;5013458;28;20300;-64
2023/10/29 00:24:02;;;;;;;1.27;0.35;;;;;;;;;;5013452;28;20277;-64
2023/10/29 00:26:28;;;;;;;0.88;0.40;;;;;;;;;;5013477;28;20025;-64
2023/10/29 00:28:53;;;;;;;3.20;0.60;;;;;;;;;;5013175;28;20092;-64
2023/10/29 00:31:18;;;;;;;2.27;0.40;;;;;;;;;;5012808;28;20800;-64
2023/10/29 00:33:43;;;;;;;2.65;0.47;;;;;;;;;;5013135;28;20326;-64
2023/10/29 00:36:09;;;;;;;0.80;0.27;;;;;;;;;;5013436;28;20026;-64
2023/10/29 00:38:34;;;;;;;2.97;0.50;;;;;;;;;;5013149;28;20284;-64
2023/10/29 00:40:59;;;;;;;0.88;0.28;;;;;;;;;;5011215;28;20032;-63
2023/10/29 00:43:25;;;;;;;0.83;0.30;;;;;;;;;;5013133;28;20021;-64
2023/10/29 00:45:54;;;;;;;6.40;0.50;;;;;;;;;;5010552;28;20296;-64
2023/10/29 00:48:19;;;;;;;1.45;0.50;;;;;;;;;;5013190;28;20289;-64
2023/10/29 00:50:45;;;;;;;1.35;0.50;;;;;;;;;;5012527;28;20034;-63
2023/10/29 00:53:10;;;;;;;1.15;0.40;;;;;;;;;;5011815;28;20026;-63
2023/10/29 00:55:36;;;;;;;1.23;0.55;;;;;;;;;;5012906;28;20037;-63
2023/10/29 00:58:01;;;;;;;1.17;0.30;;;;;;;;;;5012610;28;20029;-63
2023/10/29 01:00:27;;;;;;;2.08;0.60;;;;;;;;;;5012830;28;20029;-63
2023/10/29 01:02:52;;;;;;;1.95;0.50;;;;;;;;;;5012502;28;20022;-63
2023/10/29 01:05:17;;;;;;;2.40;0.50;;;;;;;;;;5012287;28;20041;-64
2023/10/29 01:07:43;;;;;;;1.42;0.47;;;;;;;;;;5009310;28;20026;-63
2023/10/29 01:10:09;;;;;;;1.40;0.50;;;;;;;;;;5012850;28;20041;-63
2023/10/29 01:12:34;;;;;;;2.22;0.50;;;;;;;;;;5012295;28;20064;-63
2023/10/29 01:14:59;;;;;;;0.80;0.30;;;;;;;;;;5012221;28;20057;-63
2023/10/29 01:17:25;;;;;;;4.33;0.40;;;;;;;;;;5012527;28;20284;-63
2023/10/29 01:19:50;;;;;;;0.83;0.30;;;;;;;;;;5013730;28;20288;-64
2023/10/29 01:22:18;;;;;;;0.98;0.50;;;;;;;;;;5012994;28;20277;-64
2023/10/29 01:24:43;;;;;;;1.52;0.50;;;;;;;;;;5010430;28;20028;-64
2023/10/29 01:27:10;;;;;;;0.68;0.32;;;;;;;;;;5012698;28;20030;-64
2023/10/29 01:29:35;;;;;;;1.27;0.43;;;;;;;;;;5012007;28;20025;-64
2023/10/29 01:32:00;;;;;;;2.63;0.50;;;;;;;;;;5012421;28;20030;-64
2023/10/29 01:34:25;;;;;;;1.25;0.40;;;;;;;;;;5010486;28;20273;-64
2023/10/29 01:36:51;;;;;;;1.10;0.40;;;;;;;;;;5012371;28;20060;-63
2023/10/29 01:39:16;;;;;;;0.80;0.40;;;;;;;;;;5011937;28;20063;-63
2023/10/29 01:41:41;;;;;;;1.33;0.60;;;;;;;;;;5012557;28;20113;-63
2023/10/29 01:44:06;;;;;;;1.53;0.40;;;;;;;;;;5010942;28;20311;-64
2023/10/29 01:46:31;;;;;;;1.10;0.43;;;;;;;;;;5012237;28;20320;-64
2023/10/29 01:48:57;;;;;;;2.40;0.80;;;;;;;;;;5011119;28;20476;-63
2023/10/29 01:51:22;;;;;;;1.07;0.47;;;;;;;;;;5010329;28;20779;-63
2023/10/29 01:53:47;;;;;;;1.08;0.38;;;;;;;;;;4997640;28;20786;-64
2023/10/29 01:56:12;;;;;;;5.33;0.80;;;;;;;;;;5010694;28;20022;-64
2023/10/29 01:58:38;;;;;;;2.20;0.60;;;;;;;;;;5006580;28;20352;-63
2023/10/29 02:01:11;;;;;;;3.20;1.10;;;;;;;;;;5007822;28;20348;-63
2023/10/29 02:03:36;;;;;;;1.88;0.60;;;;;;;;;;5012094;28;20287;-63
2023/10/29 02:06:01;;;;;;;0.85;0.40;;;;;;;;;;5011215;28;20112;-64
2023/10/29 02:08:26;;;;;;;2.72;0.73;;;;;;;;;;5005803;28;20045;-63
2023/10/29 02:10:52;;;;;;;1.15;0.50;;;;;;;;;;5007657;28;20065;-64
2023/10/29 02:13:17;;;;;;;1.35;0.43;;;;;;;;;;5011399;28;20038;-64
2023/10/29 02:15:42;;;;;;;1.73;0.47;;;;;;;;;;5011831;28;20396;-63
2023/10/29 02:18:08;;;;;;;1.50;0.50;;;;;;;;;;5011204;28;20264;-63
2023/10/29 02:20:33;;;;;;;0.82;0.40;;;;;;;;;;5011851;28;20627;-63
2023/10/29 02:22:58;;;;;;;1.05;0.30;;;;;;;;;;5011464;28;20479;-63
2023/10/29 02:25:23;;;;;;;2.77;0.50;;;;;;;;;;5011719;28;20087;-64
2023/10/29 02:27:49;;;;;;;1.75;0.50;;;;;;;;;;5011326;28;20356;-64
2023/10/29 02:30:14;;;;;;;1.13;0.40;;;;;;;;;;5011265;28;20018;-63
2023/10/29 02:32:39;;;;;;;2.47;0.43;;;;;;;;;;5010425;28;20273;-64
2023/10/29 02:35:05;;;;;;;1.38;0.30;;;;;;;;;;5011368;28;20077;-63
2023/10/29 02:37:31;;;;;;;1.85;0.77;;;;;;;;;;5011341;28;20057;-64
2023/10/29 02:39:56;;;;;;;1.50;0.40;;;;;;;;;;5011590;28;20496;-65
2023/10/29 02:42:21;;;;;;;1.63;0.50;;;;;;;;;;5011707;28;20281;-64
2023/10/29 02:44:46;;;;;;;1.63;0.40;;;;;;;;;;5010902;28;20384;-65
2023/10/29 02:47:12;;;;;;;0.63;0.27;;;;;;;;;;5011240;28;20300;-64
2023/10/29 02:49:37;;;;;;;0.90;0.43;;;;;;;;;;5011480;28;20277;-64
2023/10/29 02:52:02;;;;;;;1.05;0.30;;;;;;;;;;5011712;28;20299;-64
2023/10/29 02:54:28;;;;;;;1.00;0.40;;;;;;;;;;5011351;28;20026;-64
2023/10/29 02:56:53;;;;;;;0.93;0.30;;;;;;;;;;5015066;28;20022;-63
2023/10/29 02:59:20;;;;;;;1.35;0.40;;;;;;;;;;5011261;28;20101;-63
2023/10/29 03:01:45;;;;;;;1.05;0.50;;;;;;;;;;5005950;28;20026;-64
2023/10/29 03:04:10;;;;;;;1.75;0.47;;;;;;;;;;5014658;28;20145;-64
2023/10/29 03:06:38;;;;;;;1.50;0.40;;;;;;;;;;5014556;28;20038;-63
2023/10/29 03:09:03;;;;;;;1.10;0.35;;;;;;;;;;5015347;28;20033;-63
2023/10/29 03:11:28;;;;;;;0.60;0.27;;;;;;;;;;5014543;28;20035;-63
2023/10/29 03:13:53;;;;;;;1.10;0.40;;;;;;;;;;5014121;28;20312;-63
2023/10/29 03:16:18;;;;;;;0.60;0.20;;;;;;;;;;5014327;28;20300;-63
2023/10/29 03:18:46;;;;;;;1.10;0.47;;;;;;;;;;5014599;28;20283;-63
2023/10/29 03:21:14;;;;;;;1.45;0.35;;;;;;;;;;5014632;28;20276;-63
2023/10/29 03:23:39;;;;;;;1.08;0.40;;;;;;;;;;5013883;28;20022;-63
2023/10/29 03:26:04;;;;;;;2.00;0.60;;;;;;;;;;5014393;28;20064;-64
2023/10/29 03:28:29;;;;;;;2.07;0.50;;;;;;;;;;5014260;28;20283;-63
2023/10/29 03:30:55;;;;;;;1.03;0.47;;;;;;;;;;5014505;28;20277;-64
2023/10/29 03:33:20;;;;;;;2.13;0.40;;;;;;;;;;5013310;28;20291;-63
2023/10/29 03:35:45;;;;;;;1.13;0.40;;;;;;;;;;5012779;28;20485;-64
2023/10/29 03:38:10;;;;;;;0.77;0.40;;;;;;;;;;5014419;28;20786;-64
2023/10/29 03:40:36;;;;;;;1.17;0.30;;;;;;;;;;5014133;28;20759;-64
2023/10/29 03:43:02;;;;;;;2.45;0.60;;;;;;;;;;5013842;28;20284;-64
2023/10/29 03:45:27;;;;;;;1.25;0.45;;;;;;;;;;5013030;28;20032;-63
2023/10/29 03:47:52;;;;;;;0.90;0.30;;;;;;;;;;5013986;28;20117;-63
2023/10/29 03:50:17;;;;;;;1.73;0.43;;;;;;;;;;5013897;28;20308;-62
2023/10/29 03:52:43;;;;;;;0.63;0.30;;;;;;;;;;5013875;28;20380;-63
2023/10/29 03:55:08;;;;;;;2.17;0.50;;;;;;;;;;5013782;28;20297;-63
2023/10/29 03:57:33;;;;;;;1.10;0.40;;;;;;;;;;5013498;28;20273;-63
2023/10/29 03:59:58;;;;;;;0.90;0.30;;;;;;;;;;5004956;28;20293;-63
2023/10/29 04:02:24;;;;;;;3.60;0.40;;;;;;;;;;5008971;28;20468;-63
2023/10/29 04:04:49;;;;;;;2.37;0.50;;;;;;;;;;5013708;28;20789;-63
2023/10/29 04:07:14;;;;;;;1.50;0.40;;;;;;;;;;5012218;28;20710;-65
2023/10/29 04:09:39;;;;;;;1.63;0.63;;;;;;;;;;5014041;28;20798;-64
2023/10/29 04:12:05;;;;;;;3.13;0.37;;;;;;;;;;5013467;28;20284;-63
2023/10/29 04:14:30;;;;;;;1.05;0.30;;;;;;;;;;5013682;28;20277;-63
2023/10/29 04:16:56;;;;;;;2.58;0.30;;;;;;;;;;5013301;28;20029;-64
2023/10/29 04:19:21;;;;;;;1.35;0.38;;;;;;;;;;5013786;28;20022;-64
2023/10/29 04:21:46;;;;;;;1.17;0.30;;;;;;;;;;5012934;28;20030;-64
2023/10/29 04:24:12;;;;;;;0.57;0.20;;;;;;;;;;5013866;28;20033;-63
2023/10/29 04:26:37;;;;;;;1.10;0.25;;;;;;;;;;5012963;28;20033;-64
2023/10/29 04:29:02;;;;;;;1.80;0.60;;;;;;;;;;5013764;28;20038;-64
2023/10/29 04:31:28;;;;;;;1.15;0.30;;;;;;;;;;5014925;28;20028;-64
2023/10/29 04:33:53;;;;;;;1.10;0.50;;;;;;;;;;5012476;28;20419;-64
2023/10/29 04:36:19;;;;;;;1.20;0.40;;;;;;;;;;5012115;28;20291;-64
2023/10/29 04:38:44;;;;;;;2.70;0.70;;;;;;;;;;5013300;28;20280;-65
2023/10/29 04:41:10;;;;;;;1.52;0.35;;;;;;;;;;5013549;28;20080;-65
2023/10/29 04:43:35;;;;;;;1.05;0.30;;;;;;;;;;5013269;28;20548;-65
2023/10/29 04:46:01;;;;;;;0.50;0.20;;;;;;;;;;5013052;28;20026;-64
2023/10/29 04:48:26;;;;;;;1.65;0.40;;;;;;;;;;5008006;28;20453;-63
2023/10/29 04:50:51;;;;;;;1.13;0.40;;;;;;;;;;5012814;28;20033;-64
2023/10/29 04:53:16;;;;;;;1.02;0.40;;;;;;;;;;5013094;28;20022;-64
2023/10/29 04:55:42;;;;;;;0.28;0.10;;;;;;;;;;5013365;28;20029;-64
2023/10/29 04:58:07;;;;;;;0.80;0.40;;;;;;;;;;5012816;28;20080;-64
2023/10/29 05:00:32;;;;;;;0.98;0.35;;;;;;;;;;5002983;28;20472;-64
2023/10/29 05:02:58;;;;;;;3.57;0.40;;;;;;;;;;5012988;28;20091;-63
2023/10/29 05:05:23;;;;;;;2.37;0.40;;;;;;;;;;5012803;28;20710;-64
2023/10/29 05:07:49;;;;;;;2.33;0.68;;;;;;;;;;5012615;28;20304;-64
2023/10/29 05:10:14;;;;;;;4.57;1.00;;;;;;;;;;5013036;28;20036;-63
2023/10/29 05:12:39;;;;;;;1.40;0.40;;;;;;;;;;5012424;28;20279;-63
2023/10/29 05:15:05;;;;;;;1.07;0.40;;;;;;;;;;5012930;28;20361;-63
2023/10/29 05:17:30;;;;;;;4.43;0.50;;;;;;;;;;5012161;28;20639;-62
2023/10/29 05:19:56;;;;;;;1.27;0.40;;;;;;;;;;5013058;28;20022;-64
2023/10/29 05:22:21;;;;;;;0.98;0.50;;;;;;;;;;5011573;28;20064;-65
2023/10/29 05:24:47;;;;;;;2.58;0.63;;;;;;;;;;5012711;28;20062;-64
2023/10/29 05:27:12;;;;;;;2.53;0.40;;;;;;;;;;5012238;28;20485;-65
2023/10/29 05:29:37;;;;;;;1.83;0.50;;;;;;;;;;5012494;28;20420;-64
2023/10/29 05:32:03;;;;;;;1.08;0.50;;;;;;;;;;5012132;28;20112;-64
2023/10/29 05:34:28;;;;;;;4.90;0.50;;;;;;;;;;5012417;28;20032;-63
2023/10/29 05:36:54;;;;;;;4.33;0.60;;;;;;;;;;5012078;28;20033;-63
2023/10/29 05:39:19;;;;;;;3.70;0.53;;;;;;;;;;5012521;28;20280;-63
2023/10/29 05:41:44;;;;;;;1.57;0.43;;;;;;;;;;5012071;28;20284;-63
2023/10/29 05:44:09;;;;;;;2.80;0.40;;;;;;;;;;5012334;28;20302;-63
2023/10/29 05:46:35;;;;;;;1.23;0.50;;;;;;;;;;5011533;28;20346;-64
2023/10/29 05:49:00;;;;;;;2.73;0.53;;;;;;;;;;5012002;28;20515;-63
2023/10/29 05:51:25;;;;;;;0.77;0.33;;;;;;;;;;5012537;28;20781;-63
2023/10/29 05:53:50;;;;;;;4.37;0.70;;;;;;;;;;5012387;28;20639;-63
2023/10/29 05:56:18;;;;;;;3.30;0.63;;;;;;;;;;5013043;28;20619;-63
2023/10/29 05:58:43;;;;;;;5.15;0.73;;;;;;;;;;5015875;28;20424;-63
2023/10/29 06:01:08;;;;;;;1.20;0.45;;;;;;;;;;5011126;28;20030;-64
2023/10/29 06:03:34;;;;;;;6.05;0.93;;;;;;;;;;5011589;28;20042;-64
2023/10/29 06:06:00;;;;;;;1.70;0.43;;;;;;;;;;5011978;28;20120;-63
2023/10/29 06:08:25;;;;;;;0.98;0.40;;;;;;;;;;5011924;28;20088;-63
2023/10/29 06:10:50;;;;;;;1.60;0.50;;;;;;;;;;5010695;28;20057;-64
2023/10/29 06:13:15;;;;;;;2.07;0.63;;;;;;;;;;5011704;28;20109;-63
2023/10/29 06:15:40;;;;;;;2.13;0.60;;;;;;;;;;5011854;28;20299;-64
2023/10/29 06:18:06;;;;;;;2.97;0.43;;;;;;;;;;5011674;28;20034;-65
2023/10/29 06:20:32;;;;;;;2.63;0.75;;;;;;;;;;5011719;28;20280;-64
2023/10/29 06:22:57;;;;;;;2.30;0.65;;;;;;;;;;5011867;28;20052;-63
2023/10/29 06:25:22;;;;;;;1.33;0.43;;;;;;;;;;5011395;28;20048;-64
2023/10/29 06:27:47;;;;;;;2.10;0.60;;;;;;;;;;5011521;28;20308;-63
2023/10/29 06:30:13;;;;;;;2.75;0.50;;;;;;;;;;5015206;28;20261;-64
2023/10/29 06:32:38;;;;;;;2.22;0.93;;;;;;;;;;5017675;28;20018;-64
2023/10/29 06:35:04;;;;;;;4.07;0.90;;;;;;;;;;5017162;28;20059;-64
2023/10/29 06:37:29;;;;;;;5.05;0.93;;;;;;;;;;5017917;28;20048;-67
2023/10/29 06:39:54;;;;;;;2.67;0.90;;;;;;;;;;5018150;28;20483;-64
2023/10/29 06:42:20;;;;;;;2.78;0.80;;;;;;;;;;5018064;28;20460;-64
2023/10/29 06:44:45;;;;;;;2.73;0.63;;;;;;;;;;5017996;28;20341;-64
2023/10/29 06:47:10;;;;;;;3.30;0.70;;;;;;;;;;5017595;28;20355;-64
2023/10/29 06:49:35;;;;;;;6.03;0.75;;;;;;;;;;5017784;28;20281;-64
2023/10/29 06:52:01;;;;;;;2.03;0.73;;;;;;;;;;5017464;28;20548;-64
2023/10/29 06:54:26;;;;;;;2.65;0.68;;;;;;;;;;5018215;28;20844;-63
2023/10/29 06:56:51;;;;;;;1.67;0.53;;;;;;;;;;5018384;28;20029;-64
2023/10/29 06:59:18;;;;;;;2.15;0.73;;;;;;;;;;5014970;28;20277;-64
2023/10/29 07:01:43;;;;;;;1.73;0.52;;;;;;;;;;5009717;28;20064;-64
2023/10/29 07:04:08;;;;;;;3.88;0.70;;;;;;;;;;5017237;28;20456;-64
2023/10/29 07:06:34;;;;;;;4.88;0.70;;;;;;;;;;5018018;28;20022;-64
2023/10/29 07:09:00;;;;;;;3.22;1.27;;;;;;;;;;5017413;28;20092;-64
2023/10/29 07:11:28;;;;;;;2.00;0.52;;;;;;;;;;5017314;28;20030;-64
2023/10/29 07:13:53;;;;;;;1.98;0.47;;;;;;;;;;5013227;28;20056;-64
2023/10/29 07:16:18;;;;;;;2.90;0.70;;;;;;;;;;5017507;28;20125;-64
2023/10/29 07:18:44;;;;;;;4.07;0.98;;;;;;;;;;5016975;28;20273;-63
2023/10/29 07:21:09;;;;;;;2.58;0.90;;;;;;;;;;5015198;28;20029;-64
2023/10/29 07:23:34;;;;;;;3.53;0.88;;;;;;;;;;5017249;28;20568;-64
2023/10/29 07:25:59;;;;;;;3.22;0.68;;;;;;;;;;5017141;28;20030;-65
2023/10/29 07:28:25;;;;;;;3.90;1.13;;;;;;;;;;5017457;28;20030;-64
2023/10/29 07:30:50;;;;;;;3.13;0.90;;;;;;;;;;5017132;28;20284;-65
2023/10/29 07:33:15;;;;;;;2.85;0.88;;;;;;;;;;5016903;28;20316;-65
2023/10/29 07:35:40;;;;;;;1.27;0.40;;;;;;;;;;5017173;28;20026;-65
2023/10/29 07:38:07;;;;;;;3.83;0.65;;;;;;;;;;5017425;28;20052;-65
2023/10/29 07:40:32;;;;;;;4.53;1.13;;;;;;;;;;5017136;28;20025;-64
2023/10/29 07:42:57;;;;;;;3.35;0.85;;;;;;;;;;5014076;28;20088;-64
2023/10/29 07:45:23;;;;;;;4.17;1.00;;;;;;;;;;5013373;28;20029;-64
2023/10/29 07:47:48;;;;;;;2.15;0.50;;;;;;;;;;5013990;28;20313;-64
2023/10/29 07:50:13;;;;;;;5.53;1.02;;;;;;;;;;5013981;28;20029;-65
2023/10/29 07:52:39;;;;;;;6.93;0.80;;;;;;;;;;5013807;28;20030;-65
2023/10/29 07:55:11;;;;;;;4.00;0.82;;;;;;;;;;5013800;28;20276;-64
2023/10/29 07:57:38;;;;;;;4.88;0.93;;;;;;;;;;5013465;28;20028;-64
2023/10/29 08:00:04;;;;;;;3.00;0.90;;;;;;;;;;5005788;28;20496;-65
2023/10/29 08:02:32;;;;;;;4.53;1.30;;;;;;;;;;5013767;28;20472;-64
2023/10/29 08:04:57;;;;;;;2.13;0.55;;;;;;;;;;5013276;28;20077;-65
2023/10/29 08:07:23;;;;;;;2.00;0.65;;;;;;;;;;5013606;28;20089;-65
2023/10/29 08:09:48;;;;;;;3.58;0.90;;;;;;;;;;5014146;28;20022;-64
2023/10/29 08:12:14;;;;;;;2.50;0.50;;;;;;;;;;5013520;28;20101;-65
2023/10/29 08:14:39;;;;;;;2.77;0.60;;;;;;;;;;5013452;28;20309;-66
2023/10/29 08:17:04;;;;;;;1.70;0.57;;;;;;;;;;5012940;28;20331;-65
2023/10/29 08:19:29;;;;;;;3.37;0.67;;;;;;;;;;5013754;28;20276;-65
2023/10/29 08:21:55;;;;;;;3.50;0.57;;;;;;;;;;5013711;28;20359;-65
2023/10/29 08:24:20;;;;;;;2.43;0.60;;;;;;;;;;5013965;28;20152;-63
2023/10/29 08:26:45;;;;;;;3.80;0.70;;;;;;;;;;5012690;28;20312;-64
2023/10/29 08:29:11;;;;;;;3.33;0.57;;;;;;;;;;5013474;28;20281;-63
2023/10/29 08:31:36;;;;;;;1.75;0.55;;;;;;;;;;5012806;28;20307;-64
2023/10/29 08:34:01;;;;;;;4.03;0.60;;;;;;;;;;5012504;28;20500;-63
2023/10/29 08:36:28;;;;;;;4.10;0.60;;;;;;;;;;5013187;28;20627;-64
2023/10/29 08:38:53;;;;;;;1.80;0.60;;;;;;;;;;5013027;28;20318;-64
2023/10/29 08:41:18;;;;;;;1.97;0.60;;;;;;;;;;5012925;28;20422;-62
2023/10/29 08:43:44;;;;;;;1.97;0.47;;;;;;;;;;5013150;28;20372;-62
2023/10/29 08:46:09;;;;;;;3.58;0.90;;;;;;;;;;5012221;28;20328;-65
2023/10/29 08:48:35;;;;;;;3.47;1.10;;;;;;;;;;5012582;28;20022;-64
2023/10/29 08:51:00;;;;;;;1.57;0.60;;;;;;;;;;5011502;28;20479;-65
2023/10/29 08:53:25;;;;;;;3.20;0.83;;;;;;;;;;5012702;28;20620;-64
2023/10/29 08:55:52;;;;;;;2.40;0.70;;;;;;;;;;5012598;28;20627;-65
2023/10/29 08:58:17;;;;;;;5.13;0.98;;;;;;;;;;5006369;28;20778;-65
2023/10/29 09:00:45;;;;;;;1.88;0.70;;;;;;;;;;4994995;28;20031;-65
2023/10/29 09:03:10;;;;;;;5.90;0.75;;;;;;;;;;5012947;28;20099;-65
2023/10/29 09:05:36;;;;;;;3.28;0.50;;;;;;;;;;5012544;28;20061;-64
2023/10/29 09:08:01;;;;;;;2.28;0.75;;;;;;;;;;5012555;28;20030;-64
2023/10/29 09:10:28;;;;;;;4.03;0.87;;;;;;;;;;5012423;28;20451;-65
2023/10/29 09:12:53;;;;;;;3.08;0.70;;;;;;;;;;5012603;28;20272;-64
2023/10/29 09:15:18;;;;;;;2.15;0.52;;;;;;;;;;5011996;28;20499;-64
2023/10/29 09:17:44;;;;;;;4.05;0.60;;;;;;;;;;5012296;28;20128;-65
2023/10/29 09:20:09;;;;;;;1.67;0.50;;;;;;;;;;5001145;28;20030;-65
2023/10/29 09:22:34;;;;;;;4.38;0.93;;;;;;;;;;5012218;28;20022;-65
2023/10/29 09:25:00;;;;;;;3.83;1.10;;;;;;;;;;5011873;28;20045;-65
2023/10/29 09:27:25;;;;;;;6.10;1.10;;;;;;;;;;5005203;28;20293;-65
2023/10/29 09:29:50;;;;;;;4.17;0.90;;;;;;;;;;4985533;28;20347;-65
2023/10/29 09:32:16;;;;;;;4.03;0.70;;;;;;;;;;4968841;28;20320;-65
2023/10/29 09:34:42;;;;;;;4.10;0.70;;;;;;;;;;4969038;28;20022;-65
2023/10/29 09:37:07;;;;;;;2.55;0.75;;;;;;;;;;4970018;28;20942;-65
2023/10/29 09:39:32;;;;;;;2.20;0.90;;;;;;;;;;4960124;28;20828;-65
2023/10/29 09:42:01;;;;;;;1.90;0.57;;;;;;;;;;4968465;28;20037;-64
2023/10/29 09:44:29;;;;;;;3.28;0.77;;;;;;;;;;4971442;28;21190;-65
2023/10/29 09:46:58;;;;;;;2.13;0.52;;;;;;;;;;4963216;28;20092;-65
2023/10/29 09:49:23;;;;;;;2.05;0.70;;;;;;;;;;4969849;28;20026;-65
2023/10/29 09:51:49;;;;;;;2.10;0.47;;;;;;;;;;4968842;28;20079;-65
2023/10/29 09:54:14;;;;;;;3.72;0.68;;;;;;;;;;4958247;28;20932;-65
2023/10/29 09:56:39;;;;;;;2.75;0.43;;;;;;;;;;4968455;28;20084;-65
2023/10/29 09:59:06;;;;;;;3.22;0.73;;;;;;;;;;4966285;28;20912;-65
2023/10/29 10:01:32;;;;;;;3.08;0.60;;;;;;;;;;4958734;28;20029;-65
2023/10/29 10:03:57;;;;;;;2.47;0.57;;;;;;;;;;4968117;28;20852;-65
2023/10/29 10:06:22;;;;;;;2.17;0.80;;;;;;;;;;4968137;28;20062;-65
2023/10/29 10:08:54;;;;;;;4.13;0.98;;;;;;;;;;4968878;28;20346;-65
2023/10/29 10:11:23;;;;;;;2.63;0.90;;;;;;;;;;4969259;28;20142;-64
2023/10/29 10:13:48;;;;;;;4.00;0.95;;;;;;;;;;4967853;28;20034;-65
2023/10/29 10:16:15;;;;;;;0.85;0.40;;;;;;;;;;4968576;28;20018;-65
2023/10/29 10:18:51;;;;;;;2.28;0.50;;;;;;;;;;4967670;28;20959;-65
2023/10/29 10:21:16;;;;;;;3.28;0.57;;;;;;;;;;4960139;28;20024;-66
2023/10/29 10:23:52;;;;;;;2.63;0.60;;;;;;;;;;4967846;28;20034;-64
2023/10/29 10:26:28;;;;;;;4.28;0.90;;;;;;;;;;4964477;28;20037;-64
2023/10/29 10:28:55;;;;;;;2.63;0.60;;;;;;;;;;4969042;28;20042;-65
2023/10/29 10:31:21;;;;;;;2.45;0.68;;;;;;;;;;4967243;28;20856;-64
2023/10/29 10:33:46;;;;;;;2.28;0.95;;;;;;;;;;4969117;28;20037;-65
2023/10/29 10:36:11;;;;;;;3.08;0.50;;;;;;;;;;4965031;28;20030;-64
2023/10/29 10:38:50;;;;;;;1.38;0.47;;;;;;;;;;4968445;28;20033;-65
2023/10/29 10:41:15;;;;;;;2.42;0.47;;;;;;;;;;4967716;28;20029;-65
2023/10/29 10:43:41;;;;;;;1.53;0.50;;;;;;;;;;4960960;28;20030;-65
2023/10/29 10:46:07;;;;;;;4.18;0.68;;;;;;;;;;4961181;28;20293;-64
2023/10/29 10:48:34;;;;;;;1.88;0.50;;;;;;;;;;4969989;28;20922;-64
2023/10/29 10:50:59;;;;;;;4.53;0.75;;;;;;;;;;4964889;28;20037;-65
2023/10/29 10:53:25;;;;;;;2.00;0.82;;;;;;;;;;4967740;28;20054;-65
2023/10/29 10:55:50;;;;;;;2.55;0.55;;;;;;;;;;4958848;28;20018;-63
2023/10/29 10:58:17;;;;;;;3.72;0.50;;;;;;;;;;4968249;28;20025;-68
2023/10/29 11:00:43;;;;;;;1.17;0.40;;;;;;;;;;4958174;28;20022;-65
2023/10/29 11:03:09;;;;;;;3.13;0.82;;;;;;;;;;4967776;28;20056;-64
2023/10/29 11:05:35;;;;;;;2.67;0.70;;;;;;;;;;4955494;28;20063;-65
2023/10/29 11:08:02;;;;;;;1.75;0.40;;;;;;;;;;4959912;28;20033;-66
2023/10/29 11:10:27;;;;;;;2.10;0.80;;;;;;;;;;4968603;28;20136;-66
2023/10/29 11:12:53;;;;;;;3.90;0.65;;;;;;;;;;4968546;28;20041;-66
2023/10/29 11:15:19;;;;;;;2.05;0.65;;;;;;;;;;4969590;28;20031;-63
2023/10/29 11:17:51;;;;;;;2.72;0.65;;;;;;;;;;4970377;28;20888;-65
2023/10/29 11:20:38;;;;;;;1.60;0.40;;;;;;;;;;4962661;28;20057;-64
2023/10/29 11:23:13;;;;;;;2.30;0.65;;;;;;;;;;4969600;28;20045;-63
2023/10/29 11:25:39;;;;;;;;;;;;;;;;;;4969027;28;20026;-65
2023/10/29 11:28:04;;;;;;;2.55;0.65;;;;;;;;;;4970239;28;19956;-67
2023/10/29 11:30:29;;;;;;;4.18;0.73;;;;;;;;;;4970240;28;20093;-61
2023/10/29 11:33:07;;;;;;;2.38;0.88;;;;;;;;;;4967753;28;20794;-65
2023/10/29 11:35:33;;;;;;;5.03;0.70;;;;;;;;;;4971428;28;20366;-65
2023/10/29 11:38:00;;;;;;;4.10;0.80;;;;;;;;;;4964465;28;20029;-64
2023/10/29 11:40:25;;;;;;;4.28;0.63;;;;;;;;;;4972704;28;20014;-63
2023/10/29 11:42:53;;;;;;;1.27;0.43;;;;;;;;;;4973152;28;20033;-65
2023/10/29 11:45:31;;;;;;;2.92;0.82;;;;;;;;;;4970690;28;20076;-65
2023/10/29 11:48:06;;;;;;;2.45;0.70;;;;;;;;;;4966383;28;20871;-66
2023/10/29 11:50:31;;;;;;;2.90;0.98;;;;;;;;;;4963408;28;20026;-64
2023/10/29 11:52:56;;;;;;;2.35;0.70;;;;;;;;;;4970887;28;20030;-65
2023/10/29 11:55:23;;;;;;;1.37;0.60;;;;;;;;;;4970484;28;20026;-64
2023/10/29 11:57:48;;;;;;;3.30;1.02;;;;;;;;;;4969869;28;20288;-63
2023/10/29 12:00:14;;;;;;;3.50;0.60;;;;;;;;;;4970779;28;20021;-64
2023/10/29 12:02:39;;;;;;;2.67;0.65;;;;;;;;;;4970386;28;20137;-64
2023/10/29 12:05:08;;;;;;;2.63;0.80;;;;;;;;;;4969374;28;20033;-62
2023/10/29 12:07:34;;;;;;;2.38;0.70;;;;;;;;;;4970818;28;20022;-63
2023/10/29 12:10:00;;;;;;;3.75;0.73;;;;;;;;;;4972887;28;20141;-63
2023/10/29 12:12:25;;;;;;;3.00;0.68;;;;;;;;;;4964164;28;20859;-64
2023/10/29 12:14:50;;;;;;;2.65;0.52;;;;;;;;;;4971687;28;20056;-63
2023/10/29 12:17:15;;;;;;;1.13;0.40;;;;;;;;;;4973048;28;20776;-63
2023/10/29 12:19:43;;;;;;;1.27;0.40;;;;;;;;;;4970090;28;20579;-64
2023/10/29 12:22:17;;;;;;;1.80;0.60;;;;;;;;;;4968665;28;20018;-63
2023/10/29 12:24:43;;;;;;;1.55;0.50;;;;;;;;;;4969746;28;20098;-63
2023/10/29 12:27:08;;;;;;;0.77;0.30;;;;;;;;;;4968826;28;20907;-62
2023/10/29 12:29:34;;;;;;;4.45;0.50;;;;;;;;;;4962901;28;20907;-64
2023/10/29 12:31:59;;;;;;;1.73;0.50;;;;;;;;;;4972781;28;20018;-64
2023/10/29 12:34:24;;;;;;;2.65;0.63;;;;;;;;;;4955759;28;20816;-64
2023/10/29 12:36:50;;;;;;;2.27;0.60;;;;;;;;;;4969675;28;20041;-65
2023/10/29 12:39:15;;;;;;;1.13;0.30;;;;;;;;;;4969476;28;20280;-65
2023/10/29 12:41:41;;;;;;;2.17;0.35;;;;;;;;;;4967743;28;20026;-65
2023/10/29 12:44:14;;;;;;;1.55;0.25;;;;;;;;;;4970001;28;20061;-65
2023/10/29 12:46:46;;;;;;;0.52;0.25;;;;;;;;;;5000470;28;20034;-66
2023/10/29 12:49:12;;;;;;;2.05;0.60;;;;;;;;;;5008047;28;20084;-65
2023/10/29 12:51:41;;;;;;;1.02;0.30;;;;;;;;;;5012729;28;20026;-65
2023/10/29 12:54:11;;;;;;;0.82;0.30;;;;;;;;;;5010862;28;20022;-63
2023/10/29 12:56:56;;;;;;;0.50;0.20;;;;;;;;;;5010397;28;20473;-65
2023/10/29 12:59:22;;;;;;;1.00;0.30;;;;;;;;;;5008728;28;20072;-66
2023/10/29 13:01:48;;;;;;;2.05;0.70;;;;;;;;;;4999438;28;20109;-65
2023/10/29 13:04:13;;;;;;;1.95;0.32;;;;;;;;;;5010204;28;20022;-65
2023/10/29 13:06:38;;;;;;;0.88;0.30;;;;;;;;;;5009093;28;20444;-64
2023/10/29 13:09:07;;;;;;;0.70;0.30;;;;;;;;;;5012087;28;20025;-64
2023/10/29 13:11:32;;;;;;;0.60;0.20;;;;;;;;;;5010422;28;20280;-64
2023/10/29 13:13:58;;;;;;;0.22;0.10;;;;;;;;;;5012790;28;20033;-64
2023/10/29 13:16:23;;;;;;;0.63;0.30;;;;;;;;;;5011483;28;20032;-64
2023/10/29 13:18:48;;;;;;;1.03;0.30;;;;;;;;;;5011535;28;20308;-65
2023/10/29 13:21:13;;;;;;;1.40;0.30;;;;;;;;;;5012535;28;20678;-65
2023/10/29 13:23:38;;;;;;;1.37;0.30;;;;;;;;;;5011404;28;20620;-65
2023/10/29 13:26:04;;;;;;;1.48;0.47;;;;;;;;;;5012271;28;20660;-65
2023/10/29 13:28:29;;;;;;;0.97;0.40;;;;;;;;;;5010180;28;20032;-64
2023/10/29 13:30:55;;;;;;;2.47;0.67;;;;;;;;;;5012185;28;20269;-64
2023/10/29 13:33:20;;;;;;;0.90;0.30;;;;;;;;;;5010575;28;20380;-64
2023/10/29 13:35:45;;;;;;;1.70;0.40;;;;;;;;;;5012332;28;20457;-64
2023/10/29 13:38:10;;;;;;;2.73;0.27;;;;;;;;;;5011026;28;20454;-64
2023/10/29 13:40:37;;;;;;;1.87;0.30;;;;;;;;;;5011684;28;20272;-64
2023/10/29 13:43:02;;;;;;;2.33;0.47;;;;;;;;;;5007412;28;20269;-64
2023/10/29 13:45:27;;;;;;;0.30;0.10;;;;;;;;;;5011542;28;20075;-64
2023/10/29 13:47:53;;;;;;;0.55;0.22;;;;;;;;;;5011814;28;20320;-64
2023/10/29 13:50:19;;;;;;;1.17;0.30;;;;;;;;;;5010899;28;20098;-64
2023/10/29 13:52:44;;;;;;;0.93;0.20;;;;;;;;;;5003774;28;20049;-65
2023/10/29 13:55:09;;;;;;;1.08;0.30;;;;;;;;;;5010417;28;20507;-63
2023/10/29 13:57:34;;;;;;;0.30;0.10;;;;;;;;;;4976825;28;20033;-64
2023/10/29 14:00:00;;;;;;;1.55;0.57;;;;;;;;;;4962715;28;20092;-64
2023/10/29 14:02:25;;;;;;;1.10;0.30;;;;;;;;;;4969300;28;20131;-65
2023/10/29 14:04:50;;;;;;;0.80;0.30;;;;;;;;;;4970758;28;20195;-63
2023/10/29 14:07:15;;;;;;;1.00;0.30;;;;;;;;;;4979084;28;20030;-63
2023/10/29 14:09:42;;;;;;;0.50;0.20;;;;;;;;;;4966506;28;20024;-65
2023/10/29 14:12:07;;;;;;;1.08;0.35;;;;;;;;;;4972635;28;20332;-63
2023/10/29 14:14:32;;;;;;;0.85;0.30;;;;;;;;;;4983831;28;20030;-67
2023/10/29 14:16:58;;;;;;;0.90;0.20;;;;;;;;;;4972463;28;20032;-67
2023/10/29 14:19:24;;;;;;;1.90;0.28;;;;;;;;;;4961205;28;20945;-64
2023/10/29 14:21:52;;;;;;;0.88;0.30;;;;;;;;;;4979297;28;20038;-64
2023/10/29 14:24:17;;;;;;;1.83;0.52;;;;;;;;;;4965449;28;20291;-63
2023/10/29 14:26:43;;;;;;;0.65;0.30;;;;;;;;;;4958260;28;20034;-63
2023/10/29 14:29:08;;;;;;;1.80;0.57;;;;;;;;;;4972076;28;20064;-62
2023/10/29 14:31:35;;;;;;;0.68;0.30;;;;;;;;;;4964765;28;20085;-62
2023/10/29 14:34:00;;;;;;;0.38;0.17;;;;;;;;;;4972409;28;20033;-63
2023/10/29 14:36:26;;;;;;;0.83;0.23;;;;;;;;;;4971250;28;20026;-63